sensor_id;sensor_type;location;lat;lon;timestamp;pressure;altitude;pressure_sealevel;temperature;humidity
51439;BME280;38816;51.142;-0.974;2023-09-08T00:01:33;100144.63;;;18.74;100.00
51439;BME280;38816;51.142;-0.974;2023-09-08T00:03:58;100142.97;;;18.67;100.00
51439;BME280;38816;51.142;-0.974;2023-09-08T00:06:23;100146.59;;;18.60;100.00
51439;BME280;38816;51.142;-0.974;2023-09-08T00:08:49;100146.69;;;18.54;100.00
51439;BME280;38816;51.142;-0.974;2023-09-08T00:11:14;100140.69;;;18.48;100.00
51439;BME280;38816;51.142;-0.974;2023-09-08T00:13:40;100141.63;;;18.44;100.00
51439;BME280;38816;51.142;-0.974;2023-09-08T00:16:05;100135.66;;;18.39;100.00
51439;BME280;38816;51.142;-0.974;2023-09-08T00:18:32;100133.97;;;18.35;100.00
51439;BME280;38816;51.142;-0.974;2023-09-08T00:20:58;100134.97;;;18.30;100.00
51439;BME280;38816;51.142;-0.974;2023-09-08T00:23:24;100128.13;;;18.24;100.00
51439;BME280;38816;51.142;-0.974;2023-09-08T00:25:50;100137.72;;;18.20;100.00
51439;BME280;38816;51.142;-0.974;2023-09-08T00:28:15;100132.59;;;18.16;100.00
51439;BME280;38816;51.142;-0.974;2023-09-08T00:30:41;100139.66;;;18.08;100.00
51439;BME280;38816;51.142;-0.974;2023-09-08T00:33:06;100141.47;;;18.03;100.00
51439;BME280;38816;51.142;-0.974;2023-09-08T00:35:34;100135.47;;;17.98;100.00
51439;BME280;38816;51.142;-0.974;2023-09-08T00:38:00;100137.31;;;17.91;100.00
51439;BME280;38816;51.142;-0.974;2023-09-08T00:40:27;100146.06;;;17.85;100.00
51439;BME280;38816;51.142;-0.974;2023-09-08T00:42:53;100137.47;;;17.80;100.00
51439;BME280;38816;51.142;-0.974;2023-09-08T00:45:18;100151.41;;;17.76;100.00
51439;BME280;38816;51.142;-0.974;2023-09-08T00:47:44;100137.66;;;17.65;100.00
51439;BME280;38816;51.142;-0.974;2023-09-08T00:50:10;100142.00;;;17.64;100.00
51439;BME280;38816;51.142;-0.974;2023-09-08T00:52:36;100151.59;;;17.61;100.00
51439;BME280;38816;51.142;-0.974;2023-09-08T00:55:02;100149.00;;;17.59;100.00
51439;BME280;38816;51.142;-0.974;2023-09-08T00:57:27;100154.22;;;17.58;100.00
51439;BME280;38816;51.142;-0.974;2023-09-08T00:59:53;100152.50;;;17.57;100.00
51439;BME280;38816;51.142;-0.974;2023-09-08T01:02:20;100155.13;;;17.55;100.00
51439;BME280;38816;51.142;-0.974;2023-09-08T01:04:46;100151.66;;;17.55;100.00
51439;BME280;38816;51.142;-0.974;2023-09-08T01:07:13;100155.97;;;17.56;100.00
51439;BME280;38816;51.142;-0.974;2023-09-08T01:09:40;100156.88;;;17.53;100.00
51439;BME280;38816;51.142;-0.974;2023-09-08T01:12:06;100156.91;;;17.52;100.00
51439;BME280;38816;51.142;-0.974;2023-09-08T01:14:35;100153.47;;;17.50;100.00
51439;BME280;38816;51.142;-0.974;2023-09-08T01:17:00;100148.28;;;17.46;100.00
51439;BME280;38816;51.142;-0.974;2023-09-08T01:19:26;100153.59;;;17.40;100.00
51439;BME280;38816;51.142;-0.974;2023-09-08T01:27:37;100140.75;;;17.30;100.00
51439;BME280;38816;51.142;-0.974;2023-09-08T01:30:04;100150.22;;;17.32;100.00
51439;BME280;38816;51.142;-0.974;2023-09-08T01:32:30;100138.97;;;17.32;100.00
51439;BME280;38816;51.142;-0.974;2023-09-08T01:34:58;100139.00;;;17.30;100.00
51439;BME280;38816;51.142;-0.974;2023-09-08T01:37:24;100136.41;;;17.30;100.00
51439;BME280;38816;51.142;-0.974;2023-09-08T01:39:49;100141.59;;;17.30;100.00
51439;BME280;38816;51.142;-0.974;2023-09-08T01:42:18;100131.25;;;17.24;100.00
51439;BME280;38816;51.142;-0.974;2023-09-08T01:44:43;100136.53;;;17.21;100.00
51439;BME280;38816;51.142;-0.974;2023-09-08T01:47:09;100136.53;;;17.18;100.00
51439;BME280;38816;51.142;-0.974;2023-09-08T01:49:34;100137.44;;;17.17;100.00
51439;BME280;38816;51.142;-0.974;2023-09-08T01:52:03;100139.16;;;17.18;100.00
51439;BME280;38816;51.142;-0.974;2023-09-08T01:54:28;100139.19;;;17.16;100.00
51439;BME280;38816;51.142;-0.974;2023-09-08T01:56:53;100139.16;;;17.18;100.00
51439;BME280;38816;51.142;-0.974;2023-09-08T01:59:19;100137.44;;;17.17;100.00
51439;BME280;38816;51.142;-0.974;2023-09-08T02:01:44;100134.84;;;17.17;100.00
51439;BME280;38816;51.142;-0.974;2023-09-08T02:04:10;100133.13;;;17.16;100.00
51439;BME280;38816;51.142;-0.974;2023-09-08T02:06:35;100131.38;;;17.15;100.00
51439;BME280;38816;51.142;-0.974;2023-09-08T02:09:01;100131.38;;;17.15;100.00
51439;BME280;38816;51.142;-0.974;2023-09-08T02:11:26;100135.72;;;17.16;100.00
51439;BME280;38816;51.142;-0.974;2023-09-08T02:13:52;100130.53;;;17.16;100.00
51439;BME280;38816;51.142;-0.974;2023-09-08T02:16:17;100133.94;;;17.18;100.00
51439;BME280;38816;51.142;-0.974;2023-09-08T02:18:44;100130.53;;;17.16;100.00
51439;BME280;38816;51.142;-0.974;2023-09-08T02:21:10;100127.97;;;17.13;100.00
51439;BME280;38816;51.142;-0.974;2023-09-08T02:23:35;100127.97;;;17.10;100.00
51439;BME280;38816;51.142;-0.974;2023-09-08T02:26:01;100139.31;;;17.04;100.00
51439;BME280;38816;51.142;-0.974;2023-09-08T02:28:26;100146.31;;;16.99;100.00
51439;BME280;38816;51.142;-0.974;2023-09-08T02:30:52;100148.09;;;16.92;100.00
51439;BME280;38816;51.142;-0.974;2023-09-08T02:33:17;100145.56;;;16.86;100.00
51439;BME280;38816;51.142;-0.974;2023-09-08T02:35:43;100137.81;;;16.83;100.00
51439;BME280;38816;51.142;-0.974;2023-09-08T02:38:09;100130.91;;;16.79;100.00
51439;BME280;38816;51.142;-0.974;2023-09-08T02:40:34;100142.16;;;16.81;100.00
51439;BME280;38816;51.142;-0.974;2023-09-08T02:43:01;100133.50;;;16.79;100.00
51439;BME280;38816;51.142;-0.974;2023-09-08T02:45:26;100136.16;;;16.76;100.00
51439;BME280;38816;51.142;-0.974;2023-09-08T02:47:52;100134.47;;;16.75;100.00
51439;BME280;38816;51.142;-0.974;2023-09-08T02:50:17;100138.78;;;16.73;100.00
51439;BME280;38816;51.142;-0.974;2023-09-08T02:52:43;100137.91;;;16.71;100.00
51439;BME280;38816;51.142;-0.974;2023-09-08T02:55:09;100137.94;;;16.68;100.00
51439;BME280;38816;51.142;-0.974;2023-09-08T02:57:34;100136.22;;;16.67;100.00
51439;BME280;38816;51.142;-0.974;2023-09-08T03:00:00;100130.16;;;16.68;100.00
51439;BME280;38816;51.142;-0.974;2023-09-08T03:02:25;100123.25;;;16.67;100.00
51439;BME280;38816;51.142;-0.974;2023-09-08T03:04:51;100127.53;;;16.71;100.00
51439;BME280;38816;51.142;-0.974;2023-09-08T03:07:16;100123.22;;;16.73;100.00
51439;BME280;38816;51.142;-0.974;2023-09-08T03:09:42;100129.28;;;16.72;100.00
51439;BME280;38816;51.142;-0.974;2023-09-08T03:12:08;100119.75;;;16.73;100.00
51439;BME280;38816;51.142;-0.974;2023-09-08T03:14:33;100122.34;;;16.71;100.00
51439;BME280;38816;51.142;-0.974;2023-09-08T03:16:59;100127.53;;;16.71;100.00
51439;BME280;38816;51.142;-0.974;2023-09-08T03:19:24;100128.38;;;16.70;100.00
51439;BME280;38816;51.142;-0.974;2023-09-08T03:21:50;100124.09;;;16.67;100.00
51439;BME280;38816;51.142;-0.974;2023-09-08T03:24:15;100113.78;;;16.61;100.00
51439;BME280;38816;51.142;-0.974;2023-09-08T03:26:44;100122.47;;;16.56;100.00
51439;BME280;38816;51.142;-0.974;2023-09-08T03:29:09;100119.09;;;16.49;100.00
51439;BME280;38816;51.142;-0.974;2023-09-08T03:31:34;100120.00;;;16.43;100.00
51439;BME280;38816;51.142;-0.974;2023-09-08T03:34:00;100113.16;;;16.39;100.00
51439;BME280;38816;51.142;-0.974;2023-09-08T03:36:25;100114.06;;;16.35;100.00
51439;BME280;38816;51.142;-0.974;2023-09-08T03:38:51;100118.38;;;16.33;100.00
51439;BME280;38816;51.142;-0.974;2023-09-08T03:41:16;100118.41;;;16.29;100.00
51439;BME280;38816;51.142;-0.974;2023-09-08T03:43:42;100125.34;;;16.25;100.00
51439;BME280;38816;51.142;-0.974;2023-09-08T03:46:08;100133.19;;;16.20;100.00
51439;BME280;38816;51.142;-0.974;2023-09-08T03:48:34;100128.06;;;16.14;100.00
51439;BME280;38816;51.142;-0.974;2023-09-08T03:51:00;100130.66;;;16.11;100.00
51439;BME280;38816;51.142;-0.974;2023-09-08T03:53:25;100122.09;;;16.03;100.00
51439;BME280;38816;51.142;-0.974;2023-09-08T03:55:51;100131.59;;;16.03;100.00
51439;BME280;38816;51.142;-0.974;2023-09-08T03:58:16;100134.19;;;16.04;100.00
51439;BME280;38816;51.142;-0.974;2023-09-08T04:00:42;100128.97;;;16.06;100.00
51439;BME280;38816;51.142;-0.974;2023-09-08T04:03:08;100133.28;;;16.07;100.00
51439;BME280;38816;51.142;-0.974;2023-09-08T04:05:34;100135.88;;;16.07;100.00
51439;BME280;38816;51.142;-0.974;2023-09-08T04:07:59;100126.41;;;16.06;100.00
51439;BME280;38816;51.142;-0.974;2023-09-08T04:10:26;100128.16;;;16.04;100.00
51439;BME280;38816;51.142;-0.974;2023-09-08T04:12:52;100124.69;;;16.05;100.00
51439;BME280;38816;51.142;-0.974;2023-09-08T04:15:17;100126.41;;;16.06;100.00
51439;BME280;38816;51.142;-0.974;2023-09-08T04:17:42;100122.97;;;16.04;100.00
51439;BME280;38816;51.142;-0.974;2023-09-08T04:20:08;100125.56;;;16.04;100.00
51439;BME280;38816;51.142;-0.974;2023-09-08T04:22:35;100134.19;;;16.03;100.00
51439;BME280;38816;51.142;-0.974;2023-09-08T04:25:01;100139.38;;;16.03;100.00
51439;BME280;38816;51.142;-0.974;2023-09-08T04:27:26;100130.75;;;16.01;100.00
51439;BME280;38816;51.142;-0.974;2023-09-08T04:29:52;100138.53;;;15.98;100.00
51439;BME280;38816;51.142;-0.974;2023-09-08T04:32:18;100134.25;;;15.93;100.00
51439;BME280;38816;51.142;-0.974;2023-09-08T04:34:44;100135.16;;;15.88;100.00
51439;BME280;38816;51.142;-0.974;2023-09-08T04:37:09;100140.38;;;15.85;100.00
51439;BME280;38816;51.142;-0.974;2023-09-08T04:39:35;100136.09;;;15.81;100.00
51439;BME280;38816;51.142;-0.974;2023-09-08T04:42:02;100135.22;;;15.82;100.00
51439;BME280;38816;51.142;-0.974;2023-09-08T04:44:28;100136.94;;;15.80;100.00
51439;BME280;38816;51.142;-0.974;2023-09-08T04:46:54;100143.91;;;15.75;100.00
51439;BME280;38816;51.142;-0.974;2023-09-08T04:49:19;100147.38;;;15.72;100.00
51439;BME280;38816;51.142;-0.974;2023-09-08T04:51:45;100149.09;;;15.70;100.00
51439;BME280;38816;51.142;-0.974;2023-09-08T04:54:11;100148.28;;;15.65;100.00
51439;BME280;38816;51.142;-0.974;2023-09-08T04:56:38;100154.31;;;15.61;100.00
51439;BME280;38816;51.142;-0.974;2023-09-08T04:59:03;100161.25;;;15.56;100.00
51439;BME280;38816;51.142;-0.974;2023-09-08T05:01:29;100152.66;;;15.48;100.00
51439;BME280;38816;51.142;-0.974;2023-09-08T05:03:58;100152.69;;;15.43;100.00
51439;BME280;38816;51.142;-0.974;2023-09-08T05:06:25;100148.38;;;15.42;100.00
51439;BME280;38816;51.142;-0.974;2023-09-08T05:08:50;100146.63;;;15.42;100.00
51439;BME280;38816;51.142;-0.974;2023-09-08T05:11:16;100148.34;;;15.43;100.00
51439;BME280;38816;51.142;-0.974;2023-09-08T05:13:42;100139.75;;;15.41;100.00
51439;BME280;38816;51.142;-0.974;2023-09-08T05:16:08;100141.47;;;15.39;100.00
51439;BME280;38816;51.142;-0.974;2023-09-08T05:18:38;100136.28;;;15.42;100.00
51439;BME280;38816;51.142;-0.974;2023-09-08T05:21:03;100149.19;;;15.47;100.00
51439;BME280;38816;51.142;-0.974;2023-09-08T05:23:29;100144.00;;;15.52;100.00
51439;BME280;38816;51.142;-0.974;2023-09-08T05:25:55;100154.34;;;15.55;100.00
51439;BME280;38816;51.142;-0.974;2023-09-08T05:28:21;100150.00;;;15.57;100.00
51439;BME280;38816;51.142;-0.974;2023-09-08T05:30:46;100152.59;;;15.57;100.00
51439;BME280;38816;51.142;-0.974;2023-09-08T05:33:11;100152.63;;;15.55;100.00
51439;BME280;38816;51.142;-0.974;2023-09-08T05:35:37;100148.31;;;15.51;100.00
51439;BME280;38816;51.142;-0.974;2023-09-08T05:38:03;100156.97;;;15.47;100.00
51439;BME280;38816;51.142;-0.974;2023-09-08T05:40:29;100157.88;;;15.44;100.00
51439;BME280;38816;51.142;-0.974;2023-09-08T05:42:54;100150.09;;;15.41;100.00
51439;BME280;38816;51.142;-0.974;2023-09-08T05:45:20;100152.69;;;15.38;100.00
51439;BME280;38816;51.142;-0.974;2023-09-08T05:47:45;100159.59;;;15.38;100.00
51439;BME280;38816;51.142;-0.974;2023-09-08T05:50:11;100163.94;;;15.37;100.00
51439;BME280;38816;51.142;-0.974;2023-09-08T05:52:36;100167.41;;;15.36;100.00
51439;BME280;38816;51.142;-0.974;2023-09-08T05:55:02;100166.53;;;15.37;100.00
51439;BME280;38816;51.142;-0.974;2023-09-08T05:57:28;100168.25;;;15.37;100.00
51439;BME280;38816;51.142;-0.974;2023-09-08T05:59:53;100168.22;;;15.38;100.00
51439;BME280;38816;51.142;-0.974;2023-09-08T06:02:19;100168.22;;;15.40;100.00
51439;BME280;38816;51.142;-0.974;2023-09-08T06:04:44;100175.13;;;15.42;100.00
51439;BME280;38816;51.142;-0.974;2023-09-08T06:07:09;100170.81;;;15.40;100.00
51439;BME280;38816;51.142;-0.974;2023-09-08T06:09:35;100170.81;;;15.41;100.00
51439;BME280;38816;51.142;-0.974;2023-09-08T06:12:01;100172.53;;;15.45;100.00
51439;BME280;38816;51.142;-0.974;2023-09-08T06:14:26;100182.03;;;15.50;100.00
51439;BME280;38816;51.142;-0.974;2023-09-08T06:16:51;100178.53;;;15.55;100.00
51439;BME280;38816;51.142;-0.974;2023-09-08T06:19:17;100185.41;;;15.61;100.00
51439;BME280;38816;51.142;-0.974;2023-09-08T06:21:42;100188.88;;;15.66;100.00
51439;BME280;38816;51.142;-0.974;2023-09-08T06:24:08;100188.00;;;15.72;100.00
51439;BME280;38816;51.142;-0.974;2023-09-08T06:26:33;100194.00;;;15.74;100.00
51439;BME280;38816;51.142;-0.974;2023-09-08T06:28:59;100189.69;;;15.77;100.00
51439;BME280;38816;51.142;-0.974;2023-09-08T06:31:24;100193.94;;;15.86;100.00
51439;BME280;38816;51.142;-0.974;2023-09-08T06:33:50;100189.56;;;15.92;100.00
51439;BME280;38816;51.142;-0.974;2023-09-08T06:36:18;100183.47;;;16.01;100.00
51439;BME280;38816;51.142;-0.974;2023-09-08T06:38:43;100191.16;;;16.12;100.00
51439;BME280;38816;51.142;-0.974;2023-09-08T06:41:12;100194.56;;;16.23;100.00
51439;BME280;38816;51.142;-0.974;2023-09-08T06:43:38;100197.03;;;16.37;100.00
51439;BME280;38816;51.142;-0.974;2023-09-08T06:46:04;100197.81;;;16.50;100.00
51439;BME280;38816;51.142;-0.974;2023-09-08T06:48:30;100198.56;;;16.61;100.00
51439;BME280;38816;51.142;-0.974;2023-09-08T06:50:55;100200.22;;;16.71;100.00
51439;BME280;38816;51.142;-0.974;2023-09-08T06:53:25;100203.59;;;16.82;100.00
51439;BME280;38816;51.142;-0.974;2023-09-08T06:55:50;100202.63;;;16.94;100.00
51439;BME280;38816;51.142;-0.974;2023-09-08T06:58:15;100200.75;;;17.07;100.00
51439;BME280;38816;51.142;-0.974;2023-09-08T07:00:41;100203.25;;;17.16;100.00
51439;BME280;38816;51.142;-0.974;2023-09-08T07:03:07;100197.13;;;17.21;100.00
51439;BME280;38816;51.142;-0.974;2023-09-08T07:05:38;100197.03;;;17.29;100.00
51439;BME280;38816;51.142;-0.974;2023-09-08T07:08:04;100202.09;;;17.40;100.00
51439;BME280;38816;51.142;-0.974;2023-09-08T07:10:31;100197.66;;;17.50;100.00
51439;BME280;38816;51.142;-0.974;2023-09-08T07:12:57;100202.69;;;17.60;100.00
51439;BME280;38816;51.142;-0.974;2023-09-08T07:15:23;100193.06;;;17.70;100.00
51439;BME280;38816;51.142;-0.974;2023-09-08T07:17:48;100191.19;;;17.81;100.00
51439;BME280;38816;51.142;-0.974;2023-09-08T07:20:14;100194.41;;;17.99;100.00
51439;BME280;38816;51.142;-0.974;2023-09-08T07:22:39;100186.38;;;18.15;100.00
51439;BME280;38816;51.142;-0.974;2023-09-08T07:25:05;100186.06;;;18.32;100.00
51439;BME280;38816;51.142;-0.974;2023-09-08T07:27:31;100188.50;;;18.44;100.00
51439;BME280;38816;51.142;-0.974;2023-09-08T07:29:56;100184.81;;;18.56;100.00
51439;BME280;38816;51.142;-0.974;2023-09-08T07:32:22;100183.72;;;18.68;100.00
51439;BME280;38816;51.142;-0.974;2023-09-08T07:34:48;100181.81;;;18.82;100.00
51439;BME280;38816;51.142;-0.974;2023-09-08T07:37:21;100189.31;;;18.97;100.00
51439;BME280;38816;51.142;-0.974;2023-09-08T07:39:47;100189.94;;;19.10;100.00
51439;BME280;38816;51.142;-0.974;2023-09-08T07:42:12;100195.84;;;19.20;100.00
51439;BME280;38816;51.142;-0.974;2023-09-08T07:44:38;100200.91;;;19.28;100.00
51439;BME280;38816;51.142;-0.974;2023-09-08T07:47:03;100212.00;;;19.36;100.00
51439;BME280;38816;51.142;-0.974;2023-09-08T07:49:29;100204.03;;;19.43;100.00
51439;BME280;38816;51.142;-0.974;2023-09-08T07:51:54;100203.84;;;19.53;100.00
51439;BME280;38816;51.142;-0.974;2023-09-08T07:54:20;100202.78;;;19.64;100.00
51439;BME280;38816;51.142;-0.974;2023-09-08T07:56:46;100201.59;;;19.79;100.00
51439;BME280;38816;51.142;-0.974;2023-09-08T07:59:12;100205.56;;;19.95;100.00
51439;BME280;38816;51.142;-0.974;2023-09-08T08:01:38;100197.31;;;20.14;100.00
51439;BME280;38816;51.142;-0.974;2023-09-08T08:04:04;100202.94;;;20.33;100.00
51439;BME280;38816;51.142;-0.974;2023-09-08T08:06:30;100198.16;;;20.52;100.00
51439;BME280;38816;51.142;-0.974;2023-09-08T08:08:55;100199.41;;;20.71;100.00
51439;BME280;38816;51.142;-0.974;2023-09-08T08:11:22;100201.56;;;20.89;100.00
51439;BME280;38816;51.142;-0.974;2023-09-08T08:13:48;100206.16;;;21.12;100.00
51439;BME280;38816;51.142;-0.974;2023-09-08T08:16:13;100203.91;;;21.30;100.00
51439;BME280;38816;51.142;-0.974;2023-09-08T08:18:39;100202.66;;;21.44;100.00
51439;BME280;38816;51.142;-0.974;2023-09-08T08:21:04;100212.59;;;21.63;100.00
51439;BME280;38816;51.142;-0.974;2023-09-08T08:23:30;100216.41;;;21.81;100.00
51439;BME280;38816;51.142;-0.974;2023-09-08T08:25:57;100218.53;;;21.97;100.00
51439;BME280;38816;51.142;-0.974;2023-09-08T08:28:25;100219.78;;;22.14;100.00
51439;BME280;38816;51.142;-0.974;2023-09-08T08:30:51;100219.41;;;22.26;100.00
51439;BME280;38816;51.142;-0.974;2023-09-08T08:33:17;100214.66;;;22.37;100.00
51439;BME280;38816;51.142;-0.974;2023-09-08T08:35:49;100216.81;;;22.51;100.00
51439;BME280;38816;51.142;-0.974;2023-09-08T08:38:15;100217.28;;;22.64;100.00
51439;BME280;38816;51.142;-0.974;2023-09-08T08:40:40;100221.16;;;22.79;100.00
51439;BME280;38816;51.142;-0.974;2023-09-08T08:43:06;100218.09;;;22.92;100.00
51439;BME280;38816;51.142;-0.974;2023-09-08T08:45:32;100222.78;;;23.08;100.00
51439;BME280;38816;51.142;-0.974;2023-09-08T08:47:58;100231.09;;;23.19;100.00
51439;BME280;38816;51.142;-0.974;2023-09-08T08:50:24;100225.34;;;23.34;100.00
51439;BME280;38816;51.142;-0.974;2023-09-08T08:52:49;100222.03;;;23.53;100.00
51439;BME280;38816;51.142;-0.974;2023-09-08T08:55:15;100229.31;;;23.69;100.00
51439;BME280;38816;51.142;-0.974;2023-09-08T08:57:41;100231.25;;;23.86;96.39
51439;BME280;38816;51.142;-0.974;2023-09-08T09:00:08;100233.34;;;24.00;95.46
51439;BME280;38816;51.142;-0.974;2023-09-08T09:02:39;100228.72;;;24.07;94.88
51439;BME280;38816;51.142;-0.974;2023-09-08T09:05:07;100230.91;;;24.17;94.86
51439;BME280;38816;51.142;-0.974;2023-09-08T09:07:34;100240.16;;;24.28;92.46
51439;BME280;38816;51.142;-0.974;2023-09-08T09:10:00;100239.75;;;24.38;91.36
51439;BME280;38816;51.142;-0.974;2023-09-08T09:12:26;100239.38;;;24.47;89.77
51439;BME280;38816;51.142;-0.974;2023-09-08T09:14:54;100242.78;;;24.49;90.42
51439;BME280;38816;51.142;-0.974;2023-09-08T09:17:20;100239.31;;;24.49;91.32
51439;BME280;38816;51.142;-0.974;2023-09-08T09:19:46;100242.19;;;24.43;94.01
51439;BME280;38816;51.142;-0.974;2023-09-08T09:22:11;100240.69;;;24.36;93.93
51439;BME280;38816;51.142;-0.974;2023-09-08T09:24:41;100237.19;;;24.37;96.69
51439;BME280;38816;51.142;-0.974;2023-09-08T09:27:10;100245.69;;;24.43;96.84
51439;BME280;38816;51.142;-0.974;2023-09-08T09:29:49;100246.09;;;24.55;93.35
51439;BME280;38816;51.142;-0.974;2023-09-08T09:32:16;100243.88;;;24.66;88.46
51439;BME280;38816;51.142;-0.974;2023-09-08T09:34:49;100243.47;;;24.75;82.27
51439;BME280;38816;51.142;-0.974;2023-09-08T09:37:16;100251.13;;;24.81;79.90
51439;BME280;38816;51.142;-0.974;2023-09-08T09:39:41;100254.53;;;24.83;73.82
51439;BME280;38816;51.142;-0.974;2023-09-08T09:42:10;100242.16;;;24.85;75.71
51439;BME280;38816;51.142;-0.974;2023-09-08T09:44:35;100240.72;;;24.78;78.28
51439;BME280;38816;51.142;-0.974;2023-09-08T09:47:01;100244.47;;;24.72;79.42
51439;BME280;38816;51.142;-0.974;2023-09-08T09:49:27;100233.69;;;24.79;72.88
51439;BME280;38816;51.142;-0.974;2023-09-08T09:51:58;100237.59;;;24.90;75.99
51439;BME280;38816;51.142;-0.974;2023-09-08T09:54:23;100238.94;;;24.99;74.17
51439;BME280;38816;51.142;-0.974;2023-09-08T09:56:49;100240.16;;;25.12;74.25
51439;BME280;38816;51.142;-0.974;2023-09-08T09:59:17;100240.56;;;25.23;74.10
51439;BME280;38816;51.142;-0.974;2023-09-08T10:01:43;100249.69;;;25.35;68.00
51439;BME280;38816;51.142;-0.974;2023-09-08T10:04:09;100249.91;;;25.49;68.23
51439;BME280;38816;51.142;-0.974;2023-09-08T10:06:37;100253.97;;;25.57;67.33
51439;BME280;38816;51.142;-0.974;2023-09-08T10:09:04;100252.91;;;25.61;69.00
51439;BME280;38816;51.142;-0.974;2023-09-08T10:11:48;100255.41;;;25.64;68.99
51439;BME280;38816;51.142;-0.974;2023-09-08T10:14:18;100259.63;;;25.68;70.58
51439;BME280;38816;51.142;-0.974;2023-09-08T10:16:45;100260.16;;;25.74;67.90
51439;BME280;38816;51.142;-0.974;2023-09-08T10:19:15;100256.16;;;25.86;64.18
51439;BME280;38816;51.142;-0.974;2023-09-08T10:21:42;100256.28;;;26.02;64.22
51439;BME280;38816;51.142;-0.974;2023-09-08T10:24:21;100251.00;;;26.21;64.94
51439;BME280;38816;51.142;-0.974;2023-09-08T10:26:56;100247.47;;;26.39;67.86
51439;BME280;38816;51.142;-0.974;2023-09-08T10:29:24;100249.59;;;26.50;68.58
51439;BME280;38816;51.142;-0.974;2023-09-08T10:31:50;100243.88;;;26.59;64.48
51439;BME280;38816;51.142;-0.974;2023-09-08T10:34:17;100238.06;;;26.70;59.52
51439;BME280;38816;51.142;-0.974;2023-09-08T10:36:43;100241.97;;;26.80;53.97
51439;BME280;38816;51.142;-0.974;2023-09-08T10:39:28;100240.56;;;26.90;53.48
51439;BME280;38816;51.142;-0.974;2023-09-08T10:47:13;100242.09;;;26.94;58.28
51439;BME280;38816;51.142;-0.974;2023-09-08T10:49:40;100239.84;;;26.87;58.54
51439;BME280;38816;51.142;-0.974;2023-09-08T10:52:11;100242.72;;;26.82;57.79
51439;BME280;38816;51.142;-0.974;2023-09-08T10:57:15;100253.41;;;26.79;56.91
51439;BME280;38816;51.142;-0.974;2023-09-08T10:59:53;100252.97;;;26.71;56.81
51439;BME280;38816;51.142;-0.974;2023-09-08T11:02:38;100252.63;;;26.60;58.10
51439;BME280;38816;51.142;-0.974;2023-09-08T11:05:10;100254.19;;;26.64;60.53
51439;BME280;38816;51.142;-0.974;2023-09-08T11:07:37;100251.25;;;26.70;60.61
51439;BME280;38816;51.142;-0.974;2023-09-08T11:10:04;100247.53;;;26.74;55.96
51439;BME280;38816;51.142;-0.974;2023-09-08T11:12:32;100249.53;;;26.86;56.43
51439;BME280;38816;51.142;-0.974;2023-09-08T11:14:59;100256.91;;;26.97;58.83
51439;BME280;38816;51.142;-0.974;2023-09-08T11:17:31;100250.94;;;27.11;56.46
51439;BME280;38816;51.142;-0.974;2023-09-08T11:19:57;100253.56;;;27.28;55.74
51439;BME280;38816;51.142;-0.974;2023-09-08T11:22:24;100250.28;;;27.40;53.75
51439;BME280;38816;51.142;-0.974;2023-09-08T11:24:50;100246.91;;;27.54;53.44
51439;BME280;38816;51.142;-0.974;2023-09-08T11:27:16;100248.28;;;27.61;55.12
51439;BME280;38816;51.142;-0.974;2023-09-08T11:29:43;100242.28;;;27.75;54.67
51439;BME280;38816;51.142;-0.974;2023-09-08T11:32:09;100243.31;;;27.88;50.61
51439;BME280;38816;51.142;-0.974;2023-09-08T11:34:35;100252.59;;;27.95;50.87
51439;BME280;38816;51.142;-0.974;2023-09-08T11:37:08;100246.28;;;27.98;51.59
51439;BME280;38816;51.142;-0.974;2023-09-08T11:39:35;100251.75;;;27.95;46.30
51439;BME280;38816;51.142;-0.974;2023-09-08T11:42:01;100253.19;;;28.00;49.06
51439;BME280;38816;51.142;-0.974;2023-09-08T11:44:26;100245.69;;;28.09;52.12
51439;BME280;38816;51.142;-0.974;2023-09-08T11:46:52;100249.50;;;28.19;53.39
51439;BME280;38816;51.142;-0.974;2023-09-08T11:49:21;100247.97;;;28.31;53.06
51439;BME280;38816;51.142;-0.974;2023-09-08T11:51:48;100239.63;;;28.38;51.66
51439;BME280;38816;51.142;-0.974;2023-09-08T11:54:14;100240.31;;;28.42;53.49
51439;BME280;38816;51.142;-0.974;2023-09-08T11:56:40;100241.75;;;28.47;52.42
51439;BME280;38816;51.142;-0.974;2023-09-08T11:59:06;100232.59;;;28.53;51.58
51439;BME280;38816;51.142;-0.974;2023-09-08T12:01:32;100233.09;;;28.60;49.81
51439;BME280;38816;51.142;-0.974;2023-09-08T12:03:58;100237.91;;;28.67;49.23
51439;BME280;38816;51.142;-0.974;2023-09-08T12:06:27;100239.56;;;28.70;48.13
51439;BME280;38816;51.142;-0.974;2023-09-08T12:08:56;100244.66;;;28.73;48.04
51439;BME280;38816;51.142;-0.974;2023-09-08T12:11:32;100240.41;;;28.70;45.87
51439;BME280;38816;51.142;-0.974;2023-09-08T12:14:01;100231.22;;;28.62;45.44
51439;BME280;38816;51.142;-0.974;2023-09-08T12:16:27;100232.72;;;28.66;49.21
51439;BME280;38816;51.142;-0.974;2023-09-08T12:18:52;100235.41;;;28.80;48.34
51439;BME280;38816;51.142;-0.974;2023-09-08T12:21:18;100225.66;;;28.96;46.91
51439;BME280;38816;51.142;-0.974;2023-09-08T12:23:47;100234.72;;;29.07;46.98
51439;BME280;38816;51.142;-0.974;2023-09-08T12:26:14;100231.13;;;29.22;47.91
51439;BME280;38816;51.142;-0.974;2023-09-08T12:28:41;100237.59;;;29.32;46.99
51439;BME280;38816;51.142;-0.974;2023-09-08T12:31:07;100234.94;;;29.32;45.86
51439;BME280;38816;51.142;-0.974;2023-09-08T12:33:34;100229.91;;;29.13;45.77
51439;BME280;38816;51.142;-0.974;2023-09-08T12:35:59;100225.66;;;28.96;43.94
51439;BME280;38816;51.142;-0.974;2023-09-08T12:38:30;100221.09;;;28.98;43.87
51439;BME280;38816;51.142;-0.974;2023-09-08T12:40:57;100223.56;;;29.01;44.78
51439;BME280;38816;51.142;-0.974;2023-09-08T12:43:22;100222.56;;;29.18;48.43